Time;durP1;ratioP1;P1;durP2;ratioP2;P2;SDS_P1;SDS_P2;PMS_P1;PMS_P2;Temp;Humidity;BMP_temperature;BMP_pressure;BME280_temperature;BME280_humidity;BME280_pressure;Samples;Min_cycle;Max_cycle;Signal;HPM_P1;HPM_P2
2023/02/08 00:00:00;;;;;;;62.60;33.50;;;;;;;-146.25;100.00;52516.22;2088537;28;41948;-68
2023/02/08 00:01:11;;;;;;;64.90;34.28;;;;;;;-146.25;100.00;52473.63;2088723;28;20767;-68
2023/02/08 00:02:12;;;;;;;;;;;;;;;-146.25;100.00;52506.06;2088540;28;38688;-68
2023/02/08 00:03:15;;;;;;;67.57;31.88;;;;;;;-146.25;100.00;52566.91;2087878;28;39215;-67
2023/02/08 00:04:17;;;;;;;63.25;31.48;;;;;;;-146.25;100.00;52516.22;2089343;28;38486;-68
2023/02/08 00:05:18;;;;;;;61.45;31.77;;;;;;;-146.25;100.00;52510.13;2088511;28;40552;-67
2023/02/08 00:06:20;;;;;;;60.15;31.15;;;;;;;-146.25;100.00;52491.88;2088575;28;38862;-67
2023/02/08 00:07:24;;;;;;;60.97;32.78;;;;;;;-146.25;100.00;52477.69;2088312;28;40111;-67
2023/02/08 00:08:26;;;;;;;62.03;33.45;;;;;;;-146.25;100.00;52500.00;2088403;28;35955;-67
2023/02/08 00:09:29;;;;;;;63.50;32.38;;;;;;;-146.25;100.00;52487.81;2088382;28;39704;-67
2023/02/08 00:10:30;;;;;;;62.00;33.90;;;;;;;-146.25;100.00;52514.19;2088365;28;41702;-68
2023/02/08 00:11:32;;;;;;;59.17;32.17;;;;;;;-146.25;100.00;52489.84;2089116;28;20045;-68
2023/02/08 00:12:34;;;;;;;60.40;32.70;;;;;;;-146.25;100.00;52518.25;2087909;28;43003;-67
2023/02/08 00:13:37;;;;;;;59.78;32.65;;;;;;;-146.25;100.00;52536.50;2088872;28;26196;-67
2023/02/08 00:14:42;;;;;;;53.97;29.95;;;;;;;-146.25;100.00;52487.81;2088429;28;38644;-67
2023/02/08 00:15:47;;;;;;;61.70;32.70;;;;;;;-146.25;100.00;52522.28;2088314;28;38880;-67
2023/02/08 00:16:49;;;;;;;57.20;30.95;;;;;;;-146.25;100.00;52477.69;2088543;28;40215;-67
2023/02/08 00:17:51;;;;;;;57.80;31.38;;;;;;;-146.25;100.00;52512.16;2088202;28;37546;-67
2023/02/08 00:18:52;;;;;;;56.50;29.38;;;;;;;-146.25;100.00;52502.03;2088386;28;36817;-67
2023/02/08 00:19:54;;;;;;;63.00;32.78;;;;;;;-146.25;100.00;52514.19;2088456;28;39014;-67
2023/02/08 00:20:56;;;;;;;58.53;30.80;;;;;;;-146.25;100.00;52491.88;2089091;28;20761;-67
2023/02/08 00:21:57;;;;;;;63.17;33.00;;;;;;;-146.25;100.00;52530.41;2087414;28;41212;-67
2023/02/08 00:22:59;;;;;;;65.88;33.47;;;;;;;-146.25;100.00;52500.00;2087443;28;39814;-68
2023/02/08 00:24:01;;;;;;;66.53;34.17;;;;;;;-146.25;100.00;52497.97;2088980;28;23822;-68
2023/02/08 00:25:06;;;;;;;65.18;33.85;;;;;;;-146.25;100.00;52510.13;2088230;28;39250;-67
2023/02/08 00:26:11;;;;;;;64.43;34.13;;;;;;;-146.25;100.00;52481.75;2089279;28;20037;-67
2023/02/08 00:27:15;;;;;;;64.45;33.92;;;;;;;-146.25;100.00;52483.78;2089173;28;20046;-68
2023/02/08 00:28:18;;;;;;;66.82;34.85;;;;;;;-146.25;100.00;52493.91;2088369;28;33934;-68
2023/02/08 00:29:21;;;;;;;74.13;36.63;;;;;;;-146.25;100.00;52542.56;2089022;28;20048;-67
2023/02/08 00:30:23;;;;;;;76.15;35.53;;;;;;;-146.25;100.00;52518.25;2088631;28;30537;-67
2023/02/08 00:31:25;;;;;;;66.97;34.13;;;;;;;-146.25;100.00;52481.75;2088435;28;20042;-68
2023/02/08 00:32:30;;;;;;;68.60;34.45;;;;;;;-146.25;100.00;52491.88;2087500;28;33113;-68
2023/02/08 00:33:32;;;;;;;63.38;32.30;;;;;;;-146.25;100.00;52542.56;2087622;28;33376;-68
2023/02/08 00:34:34;;;;;;;67.00;32.47;;;;;;;-146.25;100.00;52483.78;2087541;28;32716;-67
2023/02/08 00:35:35;;;;;;;64.40;32.58;;;;;;;-146.25;100.00;52489.84;2087333;28;31769;-68
2023/02/08 00:36:37;;;;;;;61.50;32.58;;;;;;;-146.25;100.00;52514.19;2088330;28;34167;-68
2023/02/08 00:37:44;;;;;;;61.08;31.23;;;;;;;-146.25;100.00;52534.47;2080055;28;20058;-67
2023/02/08 00:38:46;;;;;;;57.28;30.02;;;;;;;-146.25;100.00;52485.81;2080135;28;29450;-67
2023/02/08 00:39:50;;;;;;;56.58;30.42;;;;;;;-146.25;100.00;52483.78;2079854;28;20108;-67
2023/02/08 00:40:51;;;;;;;54.00;30.00;;;;;;;-146.25;100.00;52455.38;2079950;28;31469;-67
2023/02/08 00:41:55;;;;;;;59.15;31.25;;;;;;;-146.25;100.00;52485.81;2088243;28;34252;-68
2023/02/08 00:42:57;;;;;;;63.72;31.92;;;;;;;-146.25;100.00;52500.00;2087783;28;28973;-68
2023/02/08 00:43:58;;;;;;;65.20;33.15;;;;;;;-146.25;100.00;52530.41;2079224;28;36185;-67
2023/02/08 00:45:00;;;;;;;62.38;32.17;;;;;;;-146.25;100.00;52510.13;2071159;28;36912;-68
2023/02/08 00:46:02;;;;;;;63.55;34.17;;;;;;;-146.25;100.00;52514.19;2080229;28;20077;-68
2023/02/08 00:47:04;;;;;;;64.07;32.88;;;;;;;-146.25;100.00;52514.19;2088219;28;26464;-67
2023/02/08 00:48:06;;;;;;;58.88;32.08;;;;;;;-146.25;100.00;52528.38;2088858;28;20953;-68
2023/02/08 00:49:09;;;;;;;60.83;31.42;;;;;;;-146.25;100.00;52530.41;2078914;28;39244;-67
2023/02/08 00:50:12;;;;;;;56.20;30.67;;;;;;;-146.25;100.00;52485.81;2080772;28;20050;-67
2023/02/08 00:51:14;;;;;;;58.10;30.48;;;;;;;-146.25;100.00;52483.78;2079756;28;20038;-68
2023/02/08 00:52:16;;;;;;;53.58;29.13;;;;;;;-146.25;100.00;52528.38;2063650;28;24199;-68
2023/02/08 00:53:18;;;;;;;61.05;30.38;;;;;;;-146.25;100.00;52510.13;2071483;28;29575;-68
2023/02/08 00:54:20;;;;;;;54.30;29.05;;;;;;;-146.25;100.00;52524.31;2088617;28;20041;-67
2023/02/08 00:55:22;;;;;;;52.90;28.55;;;;;;;-146.25;100.00;52542.56;2079537;28;33112;-67
2023/02/08 00:56:24;;;;;;;50.00;28.50;;;;;;;-146.25;100.00;52522.28;2079745;28;24957;-67
2023/02/08 00:57:25;;;;;;;47.97;27.48;;;;;;;-146.25;100.00;52528.38;2079390;28;36060;-67
2023/02/08 00:58:27;;;;;;;48.35;27.60;;;;;;;-146.25;100.00;52534.47;2079636;28;28738;-68
2023/02/08 00:59:29;;;;;;;57.67;29.83;;;;;;;-146.25;100.00;52522.28;2088594;28;20907;-68
2023/02/08 01:00:31;;;;;;;49.13;27.63;;;;;;;-146.25;100.00;52491.88;2088564;28;28415;-68
2023/02/08 01:01:33;;;;;;;50.17;28.30;;;;;;;-146.25;100.00;52506.06;2088268;28;20140;-68
2023/02/08 01:02:38;;;;;;;57.63;29.95;;;;;;;-146.25;100.00;52491.88;2087795;28;20042;-68
2023/02/08 01:03:42;;;;;;;61.80;30.92;;;;;;;-146.25;100.00;52514.19;2087728;28;33215;-68
2023/02/08 01:04:44;;;;;;;62.55;31.48;;;;;;;-146.25;100.00;52520.28;2088067;28;27590;-68
2023/02/08 01:05:47;;;;;;;56.35;30.42;;;;;;;-146.25;100.00;52514.19;2087854;28;20557;-68
2023/02/08 01:06:48;;;;;;;56.25;29.83;;;;;;;-146.25;100.00;52536.50;2087758;28;31842;-68
2023/02/08 01:07:50;;;;;;;51.13;28.27;;;;;;;-146.25;100.00;52522.28;2088515;28;29499;-68
2023/02/08 01:08:52;;;;;;;51.85;27.83;;;;;;;-146.25;100.00;52500.00;2088597;28;31781;-68
2023/02/08 01:09:55;;;;;;;53.38;27.15;;;;;;;-146.25;100.00;52522.28;2088542;28;20057;-67
2023/02/08 01:11:09;;;;;;;51.90;28.35;;;;;;;-146.25;100.00;52485.81;2087974;28;20042;-68
2023/02/08 01:12:14;;;;;;;58.13;29.92;;;;;;;-146.25;100.00;52518.25;2088787;28;20176;-67
2023/02/08 01:13:16;;;;;;;54.58;28.40;;;;;;;-146.25;100.00;52481.75;2088381;28;20042;-67
2023/02/08 01:14:18;;;;;;;52.58;27.00;;;;;;;-146.25;100.00;52534.47;2088288;28;36171;-68
2023/02/08 01:15:19;;;;;;;59.28;29.50;;;;;;;-146.25;100.00;52510.13;2078890;28;35050;-68
2023/02/08 01:16:26;;;;;;;57.67;31.25;;;;;;;-146.25;100.00;52508.09;2079505;28;37381;-68
2023/02/08 01:17:30;;;;;;;57.13;29.75;;;;;;;-146.25;100.00;52455.38;2088104;28;38131;-68
2023/02/08 01:18:31;;;;;;;51.70;27.77;;;;;;;-146.25;100.00;52489.84;2088408;28;20042;-68
2023/02/08 01:19:34;;;;;;;55.45;29.58;;;;;;;-146.25;100.00;52544.59;2079613;28;20038;-68
2023/02/08 01:20:37;;;;;;;53.55;28.80;;;;;;;-146.25;100.00;52544.59;2080023;28;20965;-68
2023/02/08 01:21:41;;;;;;;53.03;28.70;;;;;;;-146.25;100.00;52504.03;2087232;28;27960;-68
2023/02/08 01:22:42;;;;;;;55.30;28.02;;;;;;;-146.25;100.00;52532.44;2079078;28;37613;-68
2023/02/08 01:23:45;;;;;;;59.22;30.38;;;;;;;-146.25;100.00;52514.19;2079534;28;34595;-68
2023/02/08 01:24:47;;;;;;;58.08;30.65;;;;;;;-146.25;100.00;52487.81;2079629;28;28862;-68
2023/02/08 01:25:49;;;;;;;61.15;29.90;;;;;;;-146.25;100.00;52534.47;2079467;28;37980;-67
2023/02/08 01:26:53;;;;;;;52.75;28.25;;;;;;;-146.25;100.00;52508.09;2088874;28;20041;-68
2023/02/08 01:27:56;;;;;;;53.33;28.92;;;;;;;-146.25;100.00;52556.75;2088000;28;33842;-68
2023/02/08 01:28:58;;;;;;;52.40;27.92;;;;;;;-146.25;100.00;52508.09;2087868;28;33629;-68
2023/02/08 01:30:00;;;;;;;58.13;28.25;;;;;;;-146.25;100.00;52500.00;2079331;28;31914;-68
2023/02/08 01:31:11;;;;;;;47.97;26.70;;;;;;;-146.25;100.00;52522.28;2079449;28;29885;-67
2023/02/08 01:32:13;;;;;;;47.08;25.35;;;;;;;-146.25;100.00;52463.50;2088040;28;20042;-67
2023/02/08 01:33:15;;;;;;;52.30;27.92;;;;;;;-146.25;100.00;52522.28;2087474;28;30063;-67
2023/02/08 01:34:16;;;;;;;44.15;26.45;;;;;;;-146.25;100.00;52469.56;2079784;28;28775;-68
2023/02/08 01:35:20;;;;;;;52.92;28.30;;;;;;;-146.25;100.00;52481.75;2079645;28;20038;-67
2023/02/08 01:36:24;;;;;;;52.55;27.92;;;;;;;-146.25;100.00;52514.19;2087379;28;31145;-67
2023/02/08 01:37:25;;;;;;;51.85;27.25;;;;;;;-146.25;100.00;52524.31;2087851;28;25862;-68
2023/02/08 01:38:27;;;;;;;49.70;27.02;;;;;;;-146.25;100.00;52534.47;2088071;28;31349;-67
2023/02/08 01:39:31;;;;;;;49.28;25.80;;;;;;;-146.25;100.00;52512.16;2079749;28;20041;-68
2023/02/08 01:40:33;;;;;;;51.65;27.05;;;;;;;-146.25;100.00;52514.19;2079741;28;20034;-67
2023/02/08 01:41:43;;;;;;;55.50;28.63;;;;;;;-146.25;100.00;52502.03;2088226;28;29471;-67
2023/02/08 01:42:44;;;;;;;54.30;27.67;;;;;;;-146.25;100.00;52526.34;2087511;28;23073;-68
2023/02/08 01:44:16;;;;;;;54.00;28.48;;;;;;;-146.25;100.00;52538.53;2079388;28;30032;-67
2023/02/08 01:45:28;;;;;;;47.88;25.27;;;;;;;-146.25;100.00;52514.19;2052645;28;30004;-68
2023/02/08 01:46:33;;;;;;;49.65;25.92;;;;;;;-146.25;100.00;52502.03;2087939;28;32977;-67
2023/02/08 01:47:35;;;;;;;53.83;27.50;;;;;;;-146.25;100.00;52489.84;2087495;28;35410;-67
2023/02/08 01:48:40;;;;;;;54.92;27.40;;;;;;;-146.25;100.00;52536.50;2088336;28;20029;-67
2023/02/08 01:49:44;;;;;;;53.35;27.23;;;;;;;-146.25;100.00;52485.81;2087957;28;20270;-67
2023/02/08 01:51:09;;;;;;;51.42;27.27;;;;;;;-146.25;100.00;52520.28;2087256;28;37678;-67
2023/02/08 01:52:22;;;;;;;47.90;26.60;;;;;;;-146.25;100.00;52483.78;2079599;28;22550;-67
2023/02/08 01:53:27;;;;;;;52.95;28.05;;;;;;;-146.25;100.00;52497.97;2080896;28;33635;-66
2023/02/08 01:54:41;;;;;;;54.55;27.60;;;;;;;-146.25;100.00;52514.19;2087248;28;31522;-67
2023/02/08 01:55:50;;;;;;;49.70;26.98;;;;;;;-146.25;100.00;52485.81;2087877;28;30033;-67
2023/02/08 01:56:52;;;;;;;47.42;26.10;;;;;;;-146.25;100.00;52544.59;2079405;28;23147;-67
2023/02/08 01:58:00;;;;;;;50.25;26.63;;;;;;;-146.25;100.00;52514.19;2071193;28;20050;-67
2023/02/08 01:59:09;;;;;;;49.38;26.45;;;;;;;-146.25;100.00;52540.53;2079524;28;32152;-67
2023/02/08 02:00:21;;;;;;;54.97;26.92;;;;;;;-146.25;100.00;52502.03;2080969;28;20233;-67
2023/02/08 02:01:29;;;;;;;52.45;25.95;;;;;;;-146.25;100.00;52463.50;2087972;28;30919;-67
2023/02/08 02:02:34;;;;;;;51.40;27.25;;;;;;;-146.25;100.00;52512.16;2087539;28;35726;-67
2023/02/08 02:03:36;;;;;;;45.38;24.35;;;;;;;-146.25;100.00;52546.63;2079253;28;20057;-68
2023/02/08 02:04:38;;;;;;;53.45;26.63;;;;;;;-146.25;100.00;52502.03;2078993;28;34478;-67
2023/02/08 02:05:45;;;;;;;52.38;26.58;;;;;;;-146.25;100.00;52534.47;2087937;28;32226;-67
2023/02/08 02:06:53;;;;;;;53.50;27.17;;;;;;;-146.25;100.00;52514.19;2088253;28;30528;-67
2023/02/08 02:07:57;;;;;;;55.22;27.75;;;;;;;-146.25;100.00;52493.91;2087805;28;23023;-67
2023/02/08 02:09:48;;;;;;;52.60;27.52;;;;;;;-146.25;100.00;52528.38;2079210;28;20058;-67
2023/02/08 02:10:50;;;;;;;40.83;20.60;;;;;;;-146.25;100.00;52518.25;2054121;28;29862;-67
2023/02/08 02:11:56;;;;;;;48.53;25.67;;;;;;;-146.25;100.00;52500.00;2046095;28;37741;-67
2023/02/08 02:13:10;;;;;;;53.60;28.25;;;;;;;-146.25;100.00;52530.41;2060974;28;20042;-67
2023/02/08 02:14:16;;;;;;;50.85;25.65;;;;;;;-146.25;100.00;52481.75;2082117;28;20045;-68
2023/02/08 02:15:20;;;;;;;49.75;25.35;;;;;;;-146.25;100.00;52520.28;2079537;28;20875;-67
2023/02/08 02:16:21;;;;;;;53.15;26.83;;;;;;;-146.25;100.00;52526.34;2079043;28;39418;-67
2023/02/08 02:17:24;;;;;;;52.90;27.45;;;;;;;-146.25;100.00;52552.72;2087626;28;20045;-67
2023/02/08 02:18:31;;;;;;;56.22;28.40;;;;;;;-146.25;100.00;52491.88;2078773;28;36936;-67
2023/02/08 02:19:50;;;;;;;54.83;27.80;;;;;;;-146.25;100.00;52558.78;2080501;28;21624;-67
2023/02/08 02:21:18;;;;;;;50.55;26.52;;;;;;;-146.25;100.00;52459.44;2087738;28;33819;-67
2023/02/08 02:22:31;;;;;;;58.45;27.98;;;;;;;-146.25;100.00;52481.75;2078548;28;36154;-67
2023/02/08 02:24:31;;;;;;;56.78;27.35;;;;;;;-146.25;100.00;52516.22;2073473;28;29041;-68
2023/02/08 02:26:30;;;;;;;52.05;26.00;;;;;;;-146.25;100.00;52489.84;2080946;28;20124;-67
2023/02/08 02:28:08;;;;;;;45.13;22.65;;;;;;;-146.25;100.00;52471.59;2076661;28;31729;-68
2023/02/08 02:29:37;;;;;;;48.40;24.30;;;;;;;-146.25;100.00;52534.47;2077183;28;33096;-67
2023/02/08 02:31:06;;;;;;;53.17;26.15;;;;;;;-146.25;100.00;52502.03;2084157;28;30027;-68
2023/02/08 02:32:38;;;;;;;50.40;25.40;;;;;;;-146.25;100.00;52526.34;2088789;28;38413;-67
2023/02/08 02:34:03;;;;;;;58.83;27.27;;;;;;;-146.25;100.00;52489.84;2088710;28;34656;-68
2023/02/08 02:35:16;;;;;;;56.03;27.35;;;;;;;-146.25;100.00;52512.16;2089490;28;31729;-67
2023/02/08 02:36:23;;;;;;;52.58;26.98;;;;;;;-146.25;100.00;52518.25;2089271;28;37945;-67
2023/02/08 02:38:01;;;;;;;55.38;26.85;;;;;;;-146.25;100.00;52558.78;2089855;28;20038;-67
2023/02/08 02:39:44;;;;;;;55.03;27.13;;;;;;;-146.25;100.00;52506.06;2089904;28;20045;-67
2023/02/08 02:41:14;;;;;;;50.13;24.95;;;;;;;-146.25;100.00;52455.38;2089597;28;27267;-67
2023/02/08 02:44:37;;;;;;;44.33;22.05;;;;;;;-146.25;100.00;52510.13;2080083;28;35381;-67
2023/02/08 02:45:51;;;;;;;51.72;25.00;;;;;;;-146.25;100.00;52518.25;2074975;28;31316;-67
2023/02/08 02:47:07;;;;;;;46.58;23.25;;;;;;;-146.25;100.00;52497.97;2083802;28;38484;-67
2023/02/08 02:48:19;;;;;;;46.45;23.55;;;;;;;-146.25;100.00;52510.13;2079891;28;38288;-67
2023/02/08 02:49:35;;;;;;;47.22;24.30;;;;;;;-146.25;100.00;52489.84;2082850;28;40401;-67
2023/02/08 02:51:17;;;;;;;45.35;23.80;;;;;;;-146.25;100.00;52520.28;2080408;28;37953;-68
2023/02/08 02:52:32;;;;;;;46.22;23.58;;;;;;;-146.25;100.00;52558.78;2072978;28;32313;-68
2023/02/08 02:53:59;;;;;;;46.20;22.80;;;;;;;-146.25;100.00;52516.22;2077282;28;20035;-67
2023/02/08 02:55:09;;;;;;;50.88;25.67;;;;;;;-146.25;100.00;52500.00;2088546;28;40294;-68
2023/02/08 02:56:34;;;;;;;;;;;;;;;-146.25;100.00;52512.16;2080628;28;40305;-67
2023/02/08 02:57:40;;;;;;;46.10;22.73;;;;;;;-146.25;100.00;52473.63;2086173;28;19991;-67
2023/02/08 02:58:44;;;;;;;51.60;25.83;;;;;;;-146.25;100.00;52489.84;2089023;28;20049;-67
2023/02/08 02:59:45;;;;;;;49.22;25.70;;;;;;;-146.25;100.00;52479.72;2079804;28;42148;-67
2023/02/08 03:00:57;;;;;;;52.30;25.85;;;;;;;-146.25;100.00;52534.47;2079744;28;37578;-67
2023/02/08 03:02:00;;;;;;;46.28;23.13;;;;;;;-146.25;100.00;52530.41;2079481;28;40783;-68
2023/02/08 03:03:05;;;;;;;47.72;23.73;;;;;;;-146.25;100.00;52489.84;2081039;28;39243;-67
2023/02/08 03:04:34;;;;;;;53.33;26.45;;;;;;;-146.25;100.00;52546.63;2080791;28;20038;-67
2023/02/08 03:05:35;;;;;;;50.15;24.92;;;;;;;-146.25;100.00;52497.97;2071569;28;41082;-67
2023/02/08 03:07:05;;;;;;;54.83;26.67;;;;;;;-146.25;100.00;52502.03;2089805;28;20277;-67
2023/02/08 03:08:47;;;;;;;49.28;21.85;;;;;;;-146.25;100.00;52508.09;2088767;28;43769;-67
2023/02/08 03:10:13;;;;;;;59.08;27.65;;;;;;;-146.25;100.00;52497.97;2088608;28;40265;-67
2023/02/08 03:11:25;;;;;;;66.70;29.77;;;;;;;-146.25;100.00;52489.84;2088739;28;33325;-67
2023/02/08 03:13:03;;;;;;;64.53;29.05;;;;;;;-146.25;100.00;52530.41;2088286;28;41251;-68
2023/02/08 03:14:43;;;;;;;58.50;27.73;;;;;;;-146.25;100.00;52522.28;2088610;28;41299;-67
2023/02/08 03:16:14;;;;;;;60.28;27.98;;;;;;;-146.25;100.00;52506.06;2089725;28;20042;-67
2023/02/08 03:18:03;;;;;;;68.55;29.60;;;;;;;-146.25;100.00;52485.81;2089284;28;36964;-67
2023/02/08 03:19:55;;;;;;;62.55;28.35;;;;;;;-146.25;100.00;52518.25;2088682;28;37418;-67
2023/02/08 03:21:39;;;;;;;60.67;27.05;;;;;;;-146.25;100.00;52520.28;2079837;28;40499;-67
2023/02/08 03:23:17;;;;;;;63.10;29.08;;;;;;;-146.25;100.00;52546.63;2076822;28;38550;-67
2023/02/08 03:24:41;;;;;;;68.55;29.58;;;;;;;-146.25;100.00;52514.19;2088669;28;40484;-67
2023/02/08 03:25:48;;;;;;;74.20;31.60;;;;;;;-146.25;100.00;52483.78;2088685;28;40389;-67
2023/02/08 03:27:03;;;;;;;65.10;31.35;;;;;;;-146.25;100.00;52530.41;2088290;28;38762;-67
2023/02/08 03:28:24;;;;;;;67.30;31.02;;;;;;;-146.25;100.00;52481.75;2088452;28;44890;-67
2023/02/08 03:29:56;;;;;;;73.85;31.77;;;;;;;-146.25;100.00;52518.25;2088383;28;35877;-67
2023/02/08 03:31:19;;;;;;;71.40;31.25;;;;;;;-146.25;100.00;52520.28;2080129;28;36188;-67
2023/02/08 03:32:38;;;;;;;64.50;28.83;;;;;;;-146.25;100.00;52510.13;2087566;28;41633;-67
2023/02/08 03:34:12;;;;;;;64.82;30.88;;;;;;;-146.25;100.00;52506.06;2088576;28;20049;-67
2023/02/08 03:35:30;;;;;;;68.75;30.77;;;;;;;-146.25;100.00;52477.69;2079587;28;42772;-67
2023/02/08 03:36:52;;;;;;;64.07;28.65;;;;;;;-146.25;100.00;52522.28;2086674;28;20050;-67
2023/02/08 03:38:06;;;;;;;64.15;28.42;;;;;;;-146.25;100.00;52506.06;2079663;28;41027;-67
2023/02/08 03:39:18;;;;;;;58.42;27.73;;;;;;;-146.25;100.00;52495.94;2081612;28;20046;-67
2023/02/08 03:40:27;;;;;;;65.65;30.23;;;;;;;-146.25;100.00;52491.88;2088703;28;38231;-67
2023/02/08 03:41:35;;;;;;;55.20;26.80;;;;;;;-146.25;100.00;52493.91;2088005;28;40301;-67
2023/02/08 03:42:38;;;;;;;58.00;27.45;;;;;;;-146.25;100.00;52520.28;2079967;28;38882;-67
2023/02/08 03:43:55;;;;;;;59.53;27.77;;;;;;;-146.25;100.00;52483.78;2080277;28;44117;-67
2023/02/08 03:45:12;;;;;;;63.88;27.83;;;;;;;-146.25;100.00;52485.81;2088603;28;25594;-67
2023/02/08 03:46:27;;;;;;;65.22;29.50;;;;;;;-146.25;100.00;52493.91;2079836;28;42190;-67
2023/02/08 03:47:35;;;;;;;65.93;29.67;;;;;;;-146.25;100.00;52497.97;2083702;28;38627;-67
2023/02/08 03:48:44;;;;;;;68.82;31.05;;;;;;;-146.25;100.00;52522.28;2089026;28;20037;-67
2023/02/08 03:49:51;;;;;;;67.03;32.25;;;;;;;-146.25;100.00;52510.13;2079936;28;42195;-67
2023/02/08 03:50:55;;;;;;;57.15;28.10;;;;;;;-146.25;100.00;52493.91;2081744;28;40842;-67
2023/02/08 03:52:01;;;;;;;68.05;31.67;;;;;;;-146.25;100.00;52524.31;2080074;28;38882;-67
2023/02/08 03:53:05;;;;;;;65.63;31.13;;;;;;;-146.25;100.00;52506.06;2080715;28;39580;-67
2023/02/08 03:54:15;;;;;;;68.70;30.90;;;;;;;-146.25;100.00;52487.81;2087797;28;38520;-67
2023/02/08 03:55:25;;;;;;;63.03;29.48;;;;;;;-146.25;100.00;52516.22;2088062;28;41226;-67
2023/02/08 03:56:56;;;;;;;70.68;32.10;;;;;;;-146.25;100.00;52491.88;2080609;28;20179;-67
2023/02/08 03:58:39;;;;;;;64.93;30.10;;;;;;;-146.25;100.00;52522.28;2084451;28;42592;-67
2023/02/08 03:59:45;;;;;;;62.40;29.83;;;;;;;-146.25;100.00;52530.41;2079079;28;36586;-67
2023/02/08 04:01:11;;;;;;;67.72;30.90;;;;;;;-146.25;100.00;52502.03;2085555;28;40503;-67
2023/02/08 04:02:19;;;;;;;58.58;27.58;;;;;;;-146.25;100.00;52534.47;2088531;28;39759;-68
2023/02/08 04:03:27;;;;;;;60.28;26.27;;;;;;;-146.25;100.00;52489.84;2079880;28;40658;-67
2023/02/08 04:04:36;;;;;;;65.40;29.75;;;;;;;-146.25;100.00;52506.06;2081742;28;38527;-67
2023/02/08 04:05:39;;;;;;;57.97;28.38;;;;;;;-146.25;100.00;52481.75;2079662;28;40991;-67
2023/02/08 04:06:41;;;;;;;56.40;28.42;;;;;;;-146.25;100.00;52491.88;2080723;28;38429;-67
2023/02/08 04:07:42;;;;;;;61.75;27.67;;;;;;;-146.25;100.00;52526.34;2088165;28;40038;-67
2023/02/08 04:08:44;;;;;;;59.38;28.00;;;;;;;-146.25;100.00;52524.31;2087767;28;38479;-67
2023/02/08 04:09:46;;;;;;;57.08;29.13;;;;;;;-146.25;100.00;52526.34;2087058;28;37825;-67
2023/02/08 04:10:48;;;;;;;49.95;25.65;;;;;;;-146.25;100.00;52524.31;2088590;28;41433;-67
2023/02/08 04:11:50;;;;;;;53.88;27.42;;;;;;;-146.25;100.00;52518.25;2088279;28;25521;-67
2023/02/08 04:12:52;;;;;;;54.45;27.02;;;;;;;-146.25;100.00;52546.63;2087891;28;41019;-68
2023/02/08 04:13:54;;;;;;;57.55;29.42;;;;;;;-146.25;100.00;52493.91;2088445;28;37993;-68
2023/02/08 04:14:56;;;;;;;57.67;28.63;;;;;;;-146.25;100.00;52548.66;2088390;28;40319;-67
2023/02/08 04:15:58;;;;;;;57.45;27.40;;;;;;;-146.25;100.00;52514.19;2088732;28;40548;-67
2023/02/08 04:17:00;;;;;;;55.38;28.05;;;;;;;-146.25;100.00;52489.84;2088451;28;40572;-67
2023/02/08 04:18:02;;;;;;;59.67;28.38;;;;;;;-146.25;100.00;52544.59;2088625;28;38729;-67
2023/02/08 04:19:03;;;;;;;62.35;29.15;;;;;;;-146.25;100.00;52508.09;2088853;28;22968;-67
2023/02/08 04:20:06;;;;;;;62.67;28.92;;;;;;;-146.25;100.00;52524.31;2088660;28;39612;-67
2023/02/08 04:21:08;;;;;;;64.25;30.52;;;;;;;-146.25;100.00;52502.03;2087724;28;38747;-68
2023/02/08 04:22:09;;;;;;;62.97;30.73;;;;;;;-146.25;100.00;52500.00;2088202;28;20034;-67
2023/02/08 04:23:13;;;;;;;60.30;28.77;;;;;;;-146.25;100.00;52510.13;2088421;28;38801;-67
2023/02/08 04:24:15;;;;;;;55.20;29.23;;;;;;;-146.25;100.00;52475.66;2087615;28;38858;-67
2023/02/08 04:25:17;;;;;;;60.95;29.13;;;;;;;-146.25;100.00;52554.75;2088411;28;39622;-67
2023/02/08 04:26:21;;;;;;;63.58;30.77;;;;;;;-146.25;100.00;52546.63;2088077;28;41888;-68
2023/02/08 04:27:23;;;;;;;61.35;30.00;;;;;;;-146.25;100.00;52514.19;2088395;28;33331;-67
2023/02/08 04:28:24;;;;;;;60.72;29.48;;;;;;;-146.25;100.00;52457.41;2088599;28;38259;-67
2023/02/08 04:29:27;;;;;;;59.45;28.73;;;;;;;-146.25;100.00;52524.31;2088032;28;39629;-67
2023/02/08 04:30:29;;;;;;;60.88;30.70;;;;;;;-146.25;100.00;52524.31;2088419;28;38876;-67
2023/02/08 04:31:30;;;;;;;59.35;29.17;;;;;;;-146.25;100.00;52497.97;2088145;28;39779;-66
2023/02/08 04:32:32;;;;;;;65.47;30.60;;;;;;;-146.25;100.00;52504.03;2088243;28;41083;-68
2023/02/08 04:33:36;;;;;;;57.67;29.25;;;;;;;-146.25;100.00;52532.44;2089379;28;20044;-67
2023/02/08 04:34:39;;;;;;;53.67;27.80;;;;;;;-146.25;100.00;52526.34;2085831;28;39516;-68
2023/02/08 04:35:42;;;;;;;71.57;32.05;;;;;;;-146.25;100.00;52500.00;2088865;28;20092;-67
2023/02/08 04:36:43;;;;;;;56.45;27.73;;;;;;;-146.25;100.00;52518.25;2088698;28;32967;-67
2023/02/08 04:37:45;;;;;;;65.40;32.42;;;;;;;-146.25;100.00;52524.31;2088006;28;41113;-67
2023/02/08 04:38:47;;;;;;;58.45;28.60;;;;;;;-146.25;100.00;52510.13;2088490;28;36131;-67
2023/02/08 04:39:49;;;;;;;63.65;30.20;;;;;;;-146.25;100.00;52497.97;2087760;28;43158;-67
2023/02/08 04:40:50;;;;;;;59.30;29.52;;;;;;;-146.25;100.00;52514.19;2087737;28;42203;-67
2023/02/08 04:41:52;;;;;;;60.00;29.52;;;;;;;-146.25;100.00;52493.91;2088358;28;37003;-68
2023/02/08 04:42:56;;;;;;;61.03;29.92;;;;;;;-146.25;100.00;52497.97;2088137;28;40343;-67
2023/02/08 04:43:57;;;;;;;68.38;31.15;;;;;;;-146.25;100.00;52481.75;2088217;28;40316;-68
2023/02/08 04:45:02;;;;;;;61.45;29.83;;;;;;;-146.25;100.00;52514.19;2088173;28;39729;-67
2023/02/08 04:46:04;;;;;;;63.05;29.73;;;;;;;-146.25;100.00;52483.78;2088240;28;37397;-67
2023/02/08 04:47:06;;;;;;;63.53;30.00;;;;;;;-146.25;100.00;52497.97;2087231;28;34994;-67
2023/02/08 04:48:07;;;;;;;59.63;29.75;;;;;;;-146.25;100.00;52514.19;2087004;28;39485;-68
2023/02/08 04:49:12;;;;;;;66.00;31.25;;;;;;;-146.25;100.00;52485.81;2088152;28;40738;-68
2023/02/08 04:50:13;;;;;;;60.35;30.40;;;;;;;-146.25;100.00;52508.09;2087881;28;37137;-67
2023/02/08 04:51:15;;;;;;;61.67;30.80;;;;;;;-146.25;100.00;52514.19;2087584;28;43521;-68
2023/02/08 04:52:17;;;;;;;58.13;28.77;;;;;;;-146.25;100.00;52485.81;2088292;28;34381;-67
2023/02/08 04:53:19;;;;;;;58.05;28.05;;;;;;;-146.25;100.00;52510.13;2088167;28;39462;-67
2023/02/08 04:54:20;;;;;;;55.90;28.65;;;;;;;-146.25;100.00;52500.00;2087713;28;40529;-67
2023/02/08 04:55:22;;;;;;;59.33;28.50;;;;;;;-146.25;100.00;52512.16;2088415;28;36979;-67
2023/02/08 04:56:24;;;;;;;54.15;28.15;;;;;;;-146.25;100.00;52493.91;2087837;28;41165;-67
2023/02/08 04:57:25;;;;;;;58.03;28.70;;;;;;;-146.25;100.00;52495.94;2088354;28;38635;-67
2023/02/08 04:58:27;;;;;;;62.15;29.75;;;;;;;-146.25;100.00;52530.41;2088188;28;38048;-67
2023/02/08 04:59:29;;;;;;;54.78;27.27;;;;;;;-146.25;100.00;52506.06;2079320;28;42376;-67
2023/02/08 05:00:30;;;;;;;48.78;25.50;;;;;;;-146.25;100.00;52516.22;2079967;28;23490;-67
2023/02/08 05:01:32;;;;;;;59.35;28.80;;;;;;;-146.25;100.00;52518.25;2079453;28;39159;-67
2023/02/08 05:02:34;;;;;;;51.55;27.83;;;;;;;-146.25;100.00;52514.19;2078817;28;38651;-67
2023/02/08 05:03:36;;;;;;;57.15;27.77;;;;;;;-146.25;100.00;52526.34;2079270;28;38051;-67
2023/02/08 05:04:37;;;;;;;54.05;27.65;;;;;;;-146.25;100.00;52502.03;2087935;28;40651;-67
2023/02/08 05:05:40;;;;;;;61.72;28.70;;;;;;;-146.25;100.00;52516.22;2088149;28;35809;-67
2023/02/08 05:06:41;;;;;;;61.17;29.30;;;;;;;-146.25;100.00;52510.13;2088112;28;28526;-67